createdAt,value
2023-04-27T00:02:16.577Z,1.35
2023-04-27T00:04:45.031Z,1.38
2023-04-27T00:07:12.528Z,1.30
2023-04-27T00:09:39.793Z,1.50
2023-04-27T00:12:07.370Z,1.20
2023-04-27T00:14:34.757Z,1.25
2023-04-27T00:17:01.906Z,1.27
2023-04-27T00:19:30.448Z,1.02
2023-04-27T00:21:58.133Z,1.50
2023-04-27T00:24:25.817Z,1.27
2023-04-27T00:26:52.959Z,1.30
2023-04-27T00:29:20.121Z,1.20
2023-04-27T00:31:47.589Z,1.20
2023-04-27T00:34:14.854Z,1.20
2023-04-27T00:36:42.010Z,0.90
2023-04-27T00:39:09.172Z,1.20
2023-04-27T00:41:39.623Z,0.98
2023-04-27T00:44:06.880Z,1.30
2023-04-27T00:46:34.711Z,0.80
2023-04-27T00:49:01.915Z,0.98
2023-04-27T00:51:30.748Z,0.90
2023-04-27T00:54:02.199Z,0.90
2023-04-27T00:56:29.370Z,0.88
2023-04-27T00:58:56.561Z,0.93
2023-04-27T01:01:24.302Z,1.10
2023-04-27T01:03:51.644Z,1.23
2023-04-27T01:06:18.970Z,1.20
2023-04-27T01:08:46.917Z,1.00
2023-04-27T01:11:14.140Z,0.95
2023-04-27T01:13:41.298Z,1.10
2023-04-27T01:16:08.394Z,1.27
2023-04-27T01:18:35.468Z,1.17
2023-04-27T01:21:03.219Z,1.30
2023-04-27T01:23:30.326Z,1.52
2023-04-27T01:25:57.442Z,1.60
2023-04-27T01:28:24.603Z,1.48
2023-04-27T01:30:51.908Z,1.60
2023-04-27T01:33:19.111Z,1.58
2023-04-27T01:35:46.978Z,1.70
2023-04-27T01:38:14.227Z,1.52
2023-04-27T01:40:41.368Z,1.92
2023-04-27T01:43:08.538Z,2.00
2023-04-27T01:45:35.668Z,1.63
2023-04-27T01:48:02.793Z,1.45
2023-04-27T01:50:29.902Z,1.58
2023-04-27T01:52:56.998Z,1.45
2023-04-27T01:55:24.164Z,1.70
2023-04-27T01:57:51.310Z,1.63
2023-04-27T02:00:18.675Z,1.48
2023-04-27T02:02:46.029Z,1.70
2023-04-27T02:05:13.345Z,1.77
2023-04-27T02:07:40.659Z,1.73
2023-04-27T02:10:08.208Z,1.92
2023-04-27T02:12:35.649Z,1.90
2023-04-27T02:15:03.625Z,1.92
2023-04-27T02:17:31.681Z,1.88
2023-04-27T02:19:59.086Z,1.90
2023-04-27T02:22:26.203Z,2.20
2023-04-27T02:24:53.403Z,2.42
2023-04-27T02:27:20.652Z,3.60
2023-04-27T02:29:48.242Z,3.30
2023-04-27T02:32:15.874Z,2.85
2023-04-27T02:34:43.024Z,2.35
2023-04-27T02:37:10.149Z,2.40
2023-04-27T02:39:37.302Z,2.30
2023-04-27T02:42:04.494Z,2.53
2023-04-27T02:44:31.654Z,2.60
2023-04-27T02:46:58.793Z,2.33
2023-04-27T02:49:26.011Z,2.90
2023-04-27T02:51:53.112Z,2.40
2023-04-27T02:54:20.304Z,2.60
2023-04-27T02:56:47.496Z,2.70
2023-04-27T02:59:14.859Z,2.92
2023-04-27T03:01:42.414Z,2.67
2023-04-27T03:04:09.822Z,3.03
2023-04-27T03:06:37.078Z,3.70
2023-04-27T03:09:04.571Z,3.25
2023-04-27T03:11:31.997Z,2.92
2023-04-27T03:13:59.120Z,2.80
2023-04-27T03:16:26.278Z,2.85
2023-04-27T03:18:53.522Z,2.42
2023-04-27T03:21:20.985Z,2.85
2023-04-27T03:23:48.072Z,2.72
2023-04-27T03:26:16.104Z,2.90
2023-04-27T03:28:43.298Z,2.80
2023-04-27T03:31:11.107Z,2.72
2023-04-27T03:33:38.578Z,3.17
2023-04-27T03:36:06.967Z,3.42
2023-04-27T03:38:34.469Z,3.20
2023-04-27T03:41:01.860Z,3.58
2023-04-27T03:43:29.111Z,2.00
2023-04-27T03:45:56.330Z,2.25
2023-04-27T03:48:23.551Z,1.88
2023-04-27T03:50:50.716Z,2.38
2023-04-27T03:53:17.866Z,1.85
2023-04-27T03:55:45.476Z,1.83
2023-04-27T03:58:12.619Z,1.65
2023-04-27T04:00:40.107Z,1.63
2023-04-27T04:03:08.172Z,2.15
2023-04-27T04:05:35.991Z,1.70
2023-04-27T04:08:03.532Z,2.15
2023-04-27T04:10:30.673Z,2.22
2023-04-27T04:12:57.849Z,1.90
2023-04-27T04:15:24.923Z,1.88
2023-04-27T04:17:52.601Z,2.10
2023-04-27T04:20:19.817Z,2.22
2023-04-27T04:22:46.976Z,2.15
2023-04-27T04:25:14.155Z,1.88
2023-04-27T04:27:41.738Z,2.00
2023-04-27T04:30:09.087Z,1.73
2023-04-27T04:32:38.083Z,1.40
2023-04-27T04:35:08.537Z,1.15
2023-04-27T04:37:36.433Z,1.03
2023-04-27T04:40:10.659Z,1.20
2023-04-27T04:42:38.335Z,1.00
2023-04-27T04:45:05.966Z,1.20
2023-04-27T04:47:34.257Z,1.15
2023-04-27T04:50:01.606Z,1.33
2023-04-27T04:52:28.866Z,0.85
2023-04-27T04:54:55.958Z,0.85
2023-04-27T04:57:23.097Z,1.08
2023-04-27T04:59:50.177Z,1.45
2023-04-27T05:02:17.440Z,0.93
2023-04-27T05:04:44.674Z,1.30
2023-04-27T05:07:14.571Z,1.00
2023-04-27T05:09:42.212Z,1.23
2023-04-27T05:12:09.354Z,1.15
2023-04-27T05:14:36.484Z,0.98
2023-04-27T05:17:03.660Z,0.95
2023-04-27T05:19:31.384Z,0.90
2023-04-27T05:22:01.332Z,1.10
2023-04-27T05:24:28.507Z,0.98
2023-04-27T05:26:55.669Z,1.20
2023-04-27T05:29:23.192Z,1.30
2023-04-27T05:31:50.378Z,1.05
2023-04-27T05:34:17.652Z,1.02
2023-04-27T05:36:44.790Z,1.30
2023-04-27T05:39:12.138Z,1.23
2023-04-27T05:41:39.539Z,1.20
2023-04-27T05:44:06.985Z,1.33
2023-04-27T05:46:35.398Z,1.70
2023-04-27T05:49:04.248Z,1.63
2023-04-27T05:51:33.188Z,1.42
2023-04-27T05:54:02.007Z,1.40
2023-04-27T05:56:29.223Z,1.60
2023-04-27T05:58:56.398Z,1.23
2023-04-27T06:01:23.748Z,1.27
2023-04-27T06:03:51.030Z,1.20
2023-04-27T06:06:18.249Z,1.15
2023-04-27T06:08:45.606Z,1.33
2023-04-27T06:11:12.906Z,1.30
2023-04-27T06:13:39.979Z,0.80
2023-04-27T06:16:07.166Z,1.23
2023-04-27T06:18:34.361Z,1.00
2023-04-27T06:21:01.924Z,1.00
2023-04-27T06:23:29.407Z,1.27
2023-04-27T06:25:56.715Z,1.40
2023-04-27T06:28:23.839Z,0.93
2023-04-27T06:30:51.187Z,1.33
2023-04-27T06:33:18.332Z,1.10
2023-04-27T06:35:47.362Z,0.82
2023-04-27T06:38:14.813Z,1.10
2023-04-27T06:40:41.931Z,1.10
2023-04-27T06:43:08.998Z,1.08
2023-04-27T06:45:36.299Z,0.90
2023-04-27T06:48:03.514Z,1.13
2023-04-27T06:50:30.799Z,0.70
2023-04-27T06:52:58.091Z,1.02
2023-04-27T06:55:25.477Z,0.80
2023-04-27T06:57:52.593Z,1.13
2023-04-27T07:00:20.083Z,1.15
2023-04-27T07:02:47.340Z,10.75
2023-04-27T07:05:14.565Z,1.25
2023-04-27T07:07:41.846Z,2.20
2023-04-27T07:10:09.264Z,1.33
2023-04-27T07:12:36.793Z,1.55
2023-04-27T07:15:04.552Z,1.55
2023-04-27T07:17:31.658Z,1.20
2023-04-27T07:19:58.764Z,1.40
2023-04-27T07:22:25.890Z,1.45
2023-04-27T07:24:52.998Z,1.63
2023-04-27T07:27:21.443Z,1.25
2023-04-27T07:29:48.635Z,1.08
2023-04-27T07:32:15.975Z,1.25
2023-04-27T07:34:52.795Z,1.10
2023-04-27T07:37:21.492Z,1.15
2023-04-27T07:39:50.118Z,1.00
2023-04-27T07:42:17.361Z,1.20
2023-04-27T07:44:44.543Z,1.02
2023-04-27T07:47:13.498Z,1.10
2023-04-27T07:49:40.893Z,1.52
2023-04-27T07:52:08.484Z,1.38
2023-04-27T07:54:36.022Z,1.33
2023-04-27T07:57:08.356Z,1.48
2023-04-27T07:59:35.528Z,1.38
2023-04-27T08:04:32.895Z,1.40
2023-04-27T08:07:00.862Z,1.73
2023-04-27T08:09:28.562Z,1.50
2023-04-27T08:11:55.849Z,1.25
2023-04-27T08:14:23.125Z,1.30
2023-04-27T08:16:51.972Z,1.40
2023-04-27T08:19:19.181Z,1.48
2023-04-27T08:21:46.324Z,2.05
2023-04-27T08:24:13.465Z,1.67
2023-04-27T08:26:41.911Z,1.60
2023-04-27T08:29:23.690Z,1.70
2023-04-27T08:31:56.609Z,1.67
2023-04-27T08:34:24.453Z,1.40
2023-04-27T08:36:51.662Z,1.63
2023-04-27T08:39:19.042Z,1.60
2023-04-27T08:41:46.415Z,1.90
2023-04-27T08:44:13.812Z,2.20
2023-04-27T08:46:41.581Z,1.70
2023-04-27T08:49:09.933Z,2.22
2023-04-27T08:51:37.241Z,2.58
2023-04-27T08:54:04.519Z,1.70
2023-04-27T08:56:32.147Z,2.05
2023-04-27T08:58:59.551Z,1.80
2023-04-27T09:01:27.616Z,2.17
2023-04-27T09:03:58.689Z,2.17
2023-04-27T09:06:32.975Z,1.80
2023-04-27T09:09:00.876Z,1.60
2023-04-27T09:11:34.713Z,1.70
2023-04-27T09:14:02.953Z,2.17
2023-04-27T09:16:31.057Z,1.90
2023-04-27T09:18:58.998Z,1.80
2023-04-27T09:21:31.357Z,1.90
2023-04-27T09:23:58.535Z,1.80
2023-04-27T09:26:27.110Z,1.70
2023-04-27T09:28:57.820Z,1.70
2023-04-27T09:31:37.319Z,2.15
2023-04-27T09:34:04.556Z,1.90
2023-04-27T09:36:32.652Z,2.05
2023-04-27T09:39:04.405Z,2.25
2023-04-27T09:41:32.895Z,1.95
2023-04-27T09:44:01.679Z,2.22
2023-04-27T09:46:29.795Z,2.13
2023-04-27T09:48:57.147Z,2.25
2023-04-27T09:51:24.240Z,1.77
2023-04-27T09:53:53.886Z,2.10
2023-04-27T09:56:28.457Z,2.47
2023-04-27T09:59:01.200Z,2.08
2023-04-27T10:01:35.848Z,2.20
2023-04-27T10:04:20.518Z,2.22
2023-04-27T10:07:01.501Z,2.00
2023-04-27T10:09:31.738Z,2.00
2023-04-27T10:12:14.189Z,3.85
2023-04-27T10:14:49.023Z,2.28
2023-04-27T10:17:16.902Z,2.10
2023-04-27T10:19:57.360Z,2.15
2023-04-27T10:22:25.897Z,2.20
2023-04-27T10:24:53.071Z,2.50
2023-04-27T10:27:22.613Z,2.25
2023-04-27T10:29:50.140Z,2.40
2023-04-27T10:32:21.756Z,2.53
2023-04-27T10:34:49.152Z,2.83
2023-04-27T10:37:16.744Z,2.70
2023-04-27T10:39:49.169Z,2.70
2023-04-27T10:42:27.447Z,2.70
2023-04-27T10:44:55.858Z,2.78
2023-04-27T10:47:24.473Z,2.80
2023-04-27T10:49:54.739Z,3.05
2023-04-27T10:52:21.945Z,3.97
2023-04-27T10:54:49.056Z,3.53
2023-04-27T10:57:16.500Z,2.83
2023-04-27T10:59:50.524Z,3.45
2023-04-27T11:02:18.155Z,3.13
2023-04-27T11:04:45.527Z,3.40
2023-04-27T11:07:12.619Z,2.80
2023-04-27T11:09:40.911Z,3.00
2023-04-27T11:12:08.954Z,2.83
2023-04-27T11:14:36.961Z,2.50
2023-04-27T11:17:04.704Z,3.38
2023-04-27T11:19:32.327Z,2.83
2023-04-27T11:22:06.969Z,3.13
2023-04-27T11:24:34.250Z,2.90
2023-04-27T11:27:01.373Z,2.67
2023-04-27T11:29:38.574Z,2.40
2023-04-27T11:32:06.131Z,4.00
2023-04-27T11:34:38.865Z,3.33
2023-04-27T11:37:17.993Z,3.40
2023-04-27T11:39:46.677Z,2.63
2023-04-27T11:42:20.664Z,2.53
2023-04-27T11:44:54.797Z,2.70
2023-04-27T11:47:22.935Z,2.70
2023-04-27T11:49:50.623Z,2.92
2023-04-27T11:52:18.007Z,2.45
2023-04-27T11:54:56.531Z,2.80
2023-04-27T11:57:27.318Z,2.30
2023-04-27T11:59:54.912Z,2.75
2023-04-27T12:02:22.486Z,2.75
2023-04-27T12:04:53.132Z,2.72
2023-04-27T12:07:20.718Z,2.75
2023-04-27T12:09:47.899Z,2.45
2023-04-27T12:12:17.003Z,2.63
2023-04-27T12:14:44.241Z,2.60
2023-04-27T12:17:11.997Z,2.63
2023-04-27T12:19:39.189Z,2.60
2023-04-27T12:22:06.563Z,2.20
2023-04-27T12:24:33.705Z,2.58
2023-04-27T12:27:01.424Z,2.50
2023-04-27T12:29:28.582Z,2.42
2023-04-27T12:31:55.856Z,2.60
2023-04-27T12:34:22.939Z,2.40
2023-04-27T12:36:50.032Z,1.88
2023-04-27T12:39:18.364Z,2.30
2023-04-27T12:41:45.525Z,2.53
2023-04-27T12:44:13.513Z,2.63
2023-04-27T12:46:44.244Z,2.47
2023-04-27T12:49:12.563Z,2.53
2023-04-27T12:51:39.763Z,2.90
2023-04-27T12:54:07.473Z,2.60
2023-04-27T12:56:35.430Z,2.95
2023-04-27T12:59:02.719Z,2.47
2023-04-27T13:01:31.460Z,2.72
2023-04-27T13:04:02.720Z,2.85
2023-04-27T13:06:31.293Z,2.75
2023-04-27T13:08:58.852Z,2.90
2023-04-27T13:11:26.429Z,2.80
2023-04-27T13:13:54.893Z,3.55
2023-04-27T13:16:24.719Z,2.90
2023-04-27T13:18:52.424Z,2.80
2023-04-27T13:21:19.671Z,2.28
2023-04-27T13:23:47.932Z,2.50
2023-04-27T13:26:15.650Z,2.75
2023-04-27T13:28:42.957Z,3.08
2023-04-27T13:31:10.321Z,2.92
2023-04-27T13:33:42.092Z,3.65
2023-04-27T13:36:10.278Z,3.67
2023-04-27T13:38:37.599Z,3.60
2023-04-27T13:41:05.014Z,3.22
2023-04-27T13:43:32.181Z,4.18
2023-04-27T13:46:01.207Z,3.28
2023-04-27T13:48:28.826Z,3.65
2023-04-27T13:50:56.338Z,3.42
2023-04-27T13:53:26.900Z,3.92
2023-04-27T13:55:58.193Z,3.40
2023-04-27T14:00:53.934Z,3.75
2023-04-27T14:03:21.660Z,3.90
2023-04-27T14:05:50.965Z,3.83
2023-04-27T14:08:18.235Z,3.78
2023-04-27T14:10:46.027Z,4.10
2023-04-27T14:13:13.320Z,4.38
2023-04-27T14:15:40.519Z,4.60
2023-04-27T14:18:08.601Z,4.30
2023-04-27T14:20:36.149Z,4.65
2023-04-27T14:23:04.092Z,4.05
2023-04-27T14:25:34.346Z,4.30
2023-04-27T14:28:02.620Z,4.47
2023-04-27T14:30:29.804Z,4.57
2023-04-27T14:32:57.018Z,4.35
2023-04-27T14:35:24.529Z,4.60
2023-04-27T14:37:52.552Z,4.10
2023-04-27T14:40:20.432Z,4.35
2023-04-27T14:42:47.539Z,4.15
2023-04-27T14:45:17.251Z,4.60
2023-04-27T14:47:44.446Z,5.05
2023-04-27T14:50:11.715Z,4.35
2023-04-27T14:52:38.856Z,4.38
2023-04-27T14:55:06.637Z,4.75
2023-04-27T14:57:33.801Z,4.47
2023-04-27T15:00:01.105Z,4.18
2023-04-27T15:02:28.292Z,4.22
2023-04-27T15:04:55.681Z,4.60
2023-04-27T15:07:22.987Z,4.57
2023-04-27T15:09:51.411Z,4.45
2023-04-27T15:12:18.551Z,6.72
2023-04-27T15:14:45.700Z,3.80
2023-04-27T15:17:14.276Z,4.43
2023-04-27T15:19:41.354Z,4.68
2023-04-27T15:22:08.478Z,4.07
2023-04-27T15:24:36.238Z,4.15
2023-04-27T15:27:03.341Z,4.43
2023-04-27T15:29:30.575Z,4.50
2023-04-27T15:31:57.704Z,4.13
2023-04-27T15:34:24.800Z,4.38
2023-04-27T15:36:52.843Z,4.20
2023-04-27T15:39:20.037Z,4.97
2023-04-27T15:41:47.228Z,4.50
2023-04-27T15:44:14.326Z,5.15
2023-04-27T15:46:41.607Z,4.95
2023-04-27T15:49:08.812Z,4.38
2023-04-27T15:51:36.091Z,4.57
2023-04-27T15:54:03.256Z,4.53
2023-04-27T15:56:30.962Z,4.82
2023-04-27T15:58:58.396Z,4.60
2023-04-27T16:01:26.121Z,5.07
2023-04-27T16:03:53.594Z,5.15
2023-04-27T16:06:20.864Z,4.25
2023-04-27T16:08:48.226Z,4.95
2023-04-27T16:11:16.066Z,4.85
2023-04-27T16:13:43.164Z,4.65
2023-04-27T16:16:10.385Z,4.97
2023-04-27T16:18:38.711Z,4.57
2023-04-27T16:21:06.211Z,4.90
2023-04-27T16:23:33.377Z,3.97
2023-04-27T16:26:00.471Z,4.70
2023-04-27T16:28:27.631Z,5.50
2023-04-27T16:30:54.878Z,4.47
2023-04-27T16:33:22.057Z,4.60
2023-04-27T16:35:49.431Z,4.25
2023-04-27T16:38:16.633Z,4.03
2023-04-27T16:40:43.812Z,4.05
2023-04-27T16:43:11.279Z,4.10
2023-04-27T16:45:38.798Z,3.67
2023-04-27T16:48:06.331Z,3.78
2023-04-27T16:50:33.543Z,3.83
2023-04-27T16:53:08.083Z,4.20
2023-04-27T16:55:35.528Z,3.67
2023-04-27T16:58:02.681Z,3.75
2023-04-27T17:00:30.032Z,4.00
2023-04-27T17:02:57.216Z,4.40
2023-04-27T17:05:24.324Z,3.95
2023-04-27T17:07:51.495Z,3.85
2023-04-27T17:10:18.750Z,4.10
2023-04-27T17:12:45.918Z,3.92
2023-04-27T17:15:13.410Z,3.78
2023-04-27T17:17:41.266Z,3.55
2023-04-27T17:20:09.582Z,3.92
2023-04-27T17:22:37.327Z,4.05
2023-04-27T17:25:04.682Z,3.50
2023-04-27T17:27:31.864Z,3.45
2023-04-27T17:29:59.033Z,3.85
2023-04-27T17:32:26.445Z,16.58
2023-04-27T17:34:53.922Z,3.75
2023-04-27T17:37:21.173Z,3.90
2023-04-27T17:39:51.075Z,3.42
2023-04-27T17:42:18.545Z,2.92
2023-04-27T17:44:45.859Z,3.40
2023-04-27T17:47:13.737Z,4.45
2023-04-27T17:49:41.049Z,3.13
2023-04-27T17:52:08.308Z,3.10
2023-04-27T17:54:35.555Z,3.33
2023-04-27T17:57:02.660Z,2.80
2023-04-27T17:59:29.804Z,2.67
2023-04-27T18:01:57.129Z,3.35
2023-04-27T18:04:24.407Z,3.40
2023-04-27T18:06:51.958Z,2.72
2023-04-27T18:09:19.069Z,3.17
2023-04-27T18:11:46.214Z,2.92
2023-04-27T18:14:13.349Z,2.83
2023-04-27T18:16:40.494Z,2.90
2023-04-27T18:19:07.582Z,2.85
2023-04-27T18:21:34.734Z,3.05
2023-04-27T18:24:01.893Z,3.08
2023-04-27T18:26:30.562Z,3.17
2023-04-27T18:28:58.648Z,3.20
2023-04-27T18:31:25.939Z,3.22
2023-04-27T18:33:53.088Z,2.65
2023-04-27T18:36:20.901Z,3.10
2023-04-27T18:38:51.200Z,2.78
2023-04-27T18:41:18.342Z,3.00
2023-04-27T18:43:45.704Z,3.08
2023-04-27T18:46:12.841Z,2.83
2023-04-27T18:48:39.975Z,2.95
2023-04-27T18:51:07.137Z,3.10
2023-04-27T18:53:34.255Z,3.30
2023-04-27T18:56:02.238Z,3.47
2023-04-27T18:58:30.450Z,2.83
2023-04-27T19:00:57.640Z,3.30
2023-04-27T19:03:24.943Z,2.88
2023-04-27T19:05:52.820Z,2.97
2023-04-27T19:08:19.945Z,2.95
2023-04-27T19:10:47.038Z,2.47
2023-04-27T19:13:14.234Z,3.05
2023-04-27T19:15:41.375Z,3.20
2023-04-27T19:18:10.814Z,2.75
2023-04-27T19:20:40.745Z,2.80
2023-04-27T19:23:09.517Z,3.00
2023-04-27T19:25:37.117Z,3.25
2023-04-27T19:28:04.798Z,2.97
2023-04-27T19:30:31.978Z,2.72
2023-04-27T19:32:59.110Z,2.90
2023-04-27T19:35:27.444Z,2.45
2023-04-27T19:37:54.639Z,2.70
2023-04-27T19:40:21.788Z,2.42
2023-04-27T19:42:49.803Z,2.63
2023-04-27T19:45:18.054Z,2.78
2023-04-27T19:47:45.942Z,2.65
2023-04-27T19:50:13.304Z,3.03
2023-04-27T19:52:40.511Z,2.85
2023-04-27T19:55:08.007Z,2.45
2023-04-27T19:57:35.206Z,2.78
2023-04-27T20:00:02.366Z,2.40
2023-04-27T20:02:29.553Z,2.92
2023-04-27T20:04:57.851Z,2.97
2023-04-27T20:07:25.206Z,2.90
2023-04-27T20:09:52.315Z,3.38
2023-04-27T20:12:37.178Z,2.75
2023-04-27T20:15:06.840Z,3.05
2023-04-27T20:17:34.263Z,2.63
2023-04-27T20:20:01.445Z,2.28
2023-04-27T20:22:28.545Z,2.42
2023-04-27T20:24:59.235Z,2.70
2023-04-27T20:27:26.446Z,2.97
2023-04-27T20:29:53.527Z,2.85
2023-04-27T20:32:20.695Z,3.38
2023-04-27T20:34:47.858Z,3.28
2023-04-27T20:37:16.995Z,2.85
2023-04-27T20:39:44.304Z,3.13
2023-04-27T20:42:12.520Z,2.95
2023-04-27T20:44:39.679Z,2.97
2023-04-27T20:47:07.060Z,3.53
2023-04-27T20:49:35.656Z,3.05
2023-04-27T20:52:03.086Z,3.58
2023-04-27T20:54:32.761Z,3.35
2023-04-27T20:57:08.467Z,3.13
2023-04-27T20:59:35.652Z,3.10
2023-04-27T21:02:02.939Z,3.15
2023-04-27T21:04:30.179Z,2.92
2023-04-27T21:06:57.481Z,3.00
2023-04-27T21:09:24.595Z,2.88
2023-04-27T21:11:51.739Z,2.60
2023-04-27T21:14:18.931Z,2.72
2023-04-27T21:16:46.137Z,2.65
2023-04-27T21:19:15.222Z,2.72
2023-04-27T21:21:42.619Z,2.70
2023-04-27T21:24:10.775Z,2.58
2023-04-27T21:26:37.918Z,2.72
2023-04-27T21:29:06.065Z,2.92
2023-04-27T21:31:33.794Z,2.85
2023-04-27T21:34:01.713Z,2.40
2023-04-27T21:36:28.853Z,2.60
2023-04-27T21:38:56.057Z,3.15
2023-04-27T21:41:23.207Z,2.28
2023-04-27T21:43:51.250Z,2.72
2023-04-27T21:46:18.461Z,2.30
2023-04-27T21:48:45.727Z,2.30
2023-04-27T21:51:12.858Z,2.40
2023-04-27T21:53:40.378Z,2.45
2023-04-27T21:56:07.681Z,2.80
2023-04-27T21:58:34.818Z,2.58
2023-04-27T22:01:02.332Z,2.22
2023-04-27T22:03:29.687Z,2.65
2023-04-27T22:05:57.608Z,2.20
2023-04-27T22:08:24.797Z,2.28
2023-04-27T22:10:51.957Z,2.30
2023-04-27T22:13:19.886Z,3.38
2023-04-27T22:15:47.520Z,2.00
2023-04-27T22:18:15.384Z,2.15
2023-04-27T22:20:43.395Z,2.38
2023-04-27T22:23:10.821Z,2.20
2023-04-27T22:25:38.403Z,2.40
2023-04-27T22:28:05.632Z,2.65
2023-04-27T22:30:32.714Z,2.17
2023-04-27T22:33:00.104Z,2.10
2023-04-27T22:35:28.103Z,2.28
2023-04-27T22:37:59.591Z,2.05
2023-04-27T22:40:26.973Z,2.20
2023-04-27T22:42:55.032Z,2.15
2023-04-27T22:45:22.779Z,2.05
2023-04-27T22:47:50.119Z,2.22
2023-04-27T22:50:17.357Z,2.10
2023-04-27T22:52:44.445Z,2.30
2023-04-27T22:55:12.290Z,2.40
2023-04-27T22:57:40.197Z,1.83
2023-04-27T23:00:11.447Z,1.90
2023-04-27T23:02:39.351Z,2.00
2023-04-27T23:05:10.956Z,2.13
2023-04-27T23:07:38.231Z,2.47
2023-04-27T23:10:05.909Z,2.30
2023-04-27T23:12:33.418Z,2.10
2023-04-27T23:15:00.567Z,1.70
2023-04-27T23:17:30.589Z,1.80
2023-04-27T23:19:58.051Z,2.23
2023-04-27T23:22:25.505Z,2.33
2023-04-27T23:24:52.678Z,2.08
2023-04-27T23:27:19.958Z,1.60
2023-04-27T23:29:47.040Z,1.98
2023-04-27T23:32:14.135Z,2.35
2023-04-27T23:34:41.274Z,2.00
2023-04-27T23:37:08.517Z,1.73
2023-04-27T23:39:35.803Z,2.00
2023-04-27T23:42:03.381Z,1.48
2023-04-27T23:44:30.519Z,1.63
2023-04-27T23:46:57.674Z,2.00
2023-04-27T23:49:24.871Z,1.85
2023-04-27T23:51:52.887Z,1.98
2023-04-27T23:54:19.988Z,2.10
2023-04-27T23:56:47.311Z,1.63
2023-04-27T23:59:15.078Z,1.60
